sensor_id;sensor_type;location;lat;lon;timestamp;P1;durP1;ratioP1;P2;durP2;ratioP2
47259;SDS011;32999;52.412;4.890;2022-08-19T00:02:07;12.48;;;9.00;;
47259;SDS011;32999;52.412;4.890;2022-08-19T00:07:09;9.52;;;8.60;;
47259;SDS011;32999;52.412;4.890;2022-08-19T00:12:12;11.05;;;8.65;;
47259;SDS011;32999;52.412;4.890;2022-08-19T00:22:16;9.88;;;7.70;;
47259;SDS011;32999;52.412;4.890;2022-08-19T00:27:19;12.00;;;8.05;;
47259;SDS011;32999;52.412;4.890;2022-08-19T00:32:21;8.38;;;7.40;;
47259;SDS011;32999;52.412;4.890;2022-08-19T00:37:23;13.63;;;9.10;;
47259;SDS011;32999;52.412;4.890;2022-08-19T00:42:28;9.63;;;8.73;;
47259;SDS011;32999;52.412;4.890;2022-08-19T00:47:30;14.07;;;8.13;;
47259;SDS011;32999;52.412;4.890;2022-08-19T00:52:32;14.32;;;9.25;;
47259;SDS011;32999;52.412;4.890;2022-08-19T00:57:38;10.88;;;8.95;;
47259;SDS011;32999;52.412;4.890;2022-08-19T01:02:44;12.15;;;9.35;;
47259;SDS011;32999;52.412;4.890;2022-08-19T01:07:46;12.80;;;8.93;;
47259;SDS011;32999;52.412;4.890;2022-08-19T01:12:53;14.70;;;9.15;;
47259;SDS011;32999;52.412;4.890;2022-08-19T01:17:57;9.98;;;8.93;;
47259;SDS011;32999;52.412;4.890;2022-08-19T01:23:03;12.57;;;9.48;;
47259;SDS011;32999;52.412;4.890;2022-08-19T01:28:06;16.75;;;12.75;;
47259;SDS011;32999;52.412;4.890;2022-08-19T01:33:09;17.60;;;13.32;;
47259;SDS011;32999;52.412;4.890;2022-08-19T01:38:20;16.05;;;13.18;;
47259;SDS011;32999;52.412;4.890;2022-08-19T01:43:24;19.00;;;14.20;;
47259;SDS011;32999;52.412;4.890;2022-08-19T01:48:26;17.38;;;14.65;;
47259;SDS011;32999;52.412;4.890;2022-08-19T01:53:30;15.85;;;13.38;;
47259;SDS011;32999;52.412;4.890;2022-08-19T01:58:33;15.80;;;14.10;;
47259;SDS011;32999;52.412;4.890;2022-08-19T02:03:39;15.20;;;13.25;;
47259;SDS011;32999;52.412;4.890;2022-08-19T02:08:42;17.17;;;14.18;;
47259;SDS011;32999;52.412;4.890;2022-08-19T02:13:48;21.13;;;15.52;;
47259;SDS011;32999;52.412;4.890;2022-08-19T02:18:50;16.08;;;14.25;;
47259;SDS011;32999;52.412;4.890;2022-08-19T02:23:53;22.60;;;15.00;;
47259;SDS011;32999;52.412;4.890;2022-08-19T02:28:55;18.13;;;13.80;;
47259;SDS011;32999;52.412;4.890;2022-08-19T02:33:57;17.92;;;14.23;;
47259;SDS011;32999;52.412;4.890;2022-08-19T02:39:00;16.17;;;13.65;;
47259;SDS011;32999;52.412;4.890;2022-08-19T02:44:02;16.40;;;13.00;;
47259;SDS011;32999;52.412;4.890;2022-08-19T02:49:06;17.65;;;14.25;;
47259;SDS011;32999;52.412;4.890;2022-08-19T02:54:10;20.20;;;15.53;;
47259;SDS011;32999;52.412;4.890;2022-08-19T02:59:13;17.15;;;13.57;;
47259;SDS011;32999;52.412;4.890;2022-08-19T03:04:15;15.85;;;13.95;;
47259;SDS011;32999;52.412;4.890;2022-08-19T03:09:19;20.02;;;14.05;;
47259;SDS011;32999;52.412;4.890;2022-08-19T03:14:21;17.40;;;13.63;;
47259;SDS011;32999;52.412;4.890;2022-08-19T03:19:23;20.67;;;13.45;;
47259;SDS011;32999;52.412;4.890;2022-08-19T03:24:27;19.50;;;14.45;;
47259;SDS011;32999;52.412;4.890;2022-08-19T03:29:29;24.90;;;16.85;;
47259;SDS011;32999;52.412;4.890;2022-08-19T03:34:32;22.20;;;17.08;;
47259;SDS011;32999;52.412;4.890;2022-08-19T03:39:39;22.98;;;17.67;;
47259;SDS011;32999;52.412;4.890;2022-08-19T03:44:42;27.73;;;19.42;;
47259;SDS011;32999;52.412;4.890;2022-08-19T03:49:45;25.35;;;19.17;;
47259;SDS011;32999;52.412;4.890;2022-08-19T03:54:49;26.30;;;20.17;;
47259;SDS011;32999;52.412;4.890;2022-08-19T03:59:51;27.10;;;20.88;;
47259;SDS011;32999;52.412;4.890;2022-08-19T04:04:53;26.88;;;19.55;;
47259;SDS011;32999;52.412;4.890;2022-08-19T04:09:56;31.85;;;22.33;;
47259;SDS011;32999;52.412;4.890;2022-08-19T04:14:59;36.25;;;25.38;;
47259;SDS011;32999;52.412;4.890;2022-08-19T04:20:00;35.92;;;24.60;;
47259;SDS011;32999;52.412;4.890;2022-08-19T04:25:04;37.33;;;25.52;;
47259;SDS011;32999;52.412;4.890;2022-08-19T04:30:06;38.80;;;26.73;;
47259;SDS011;32999;52.412;4.890;2022-08-19T04:35:09;44.97;;;27.35;;
47259;SDS011;32999;52.412;4.890;2022-08-19T04:40:12;42.53;;;28.23;;
47259;SDS011;32999;52.412;4.890;2022-08-19T04:45:35;48.53;;;30.90;;
47259;SDS011;32999;52.412;4.890;2022-08-19T04:50:39;51.75;;;29.20;;
47259;SDS011;32999;52.412;4.890;2022-08-19T04:56:03;43.72;;;28.67;;
47259;SDS011;32999;52.412;4.890;2022-08-19T05:01:08;50.50;;;27.92;;
47259;SDS011;32999;52.412;4.890;2022-08-19T05:06:11;44.05;;;27.42;;
47259;SDS011;32999;52.412;4.890;2022-08-19T05:11:16;35.22;;;25.02;;
47259;SDS011;32999;52.412;4.890;2022-08-19T05:16:20;42.75;;;26.13;;
47259;SDS011;32999;52.412;4.890;2022-08-19T05:21:24;49.38;;;27.85;;
47259;SDS011;32999;52.412;4.890;2022-08-19T05:26:46;45.75;;;27.75;;
47259;SDS011;32999;52.412;4.890;2022-08-19T05:31:49;53.67;;;30.67;;
47259;SDS011;32999;52.412;4.890;2022-08-19T05:36:52;55.97;;;31.02;;
47259;SDS011;32999;52.412;4.890;2022-08-19T05:41:59;51.38;;;29.85;;
47259;SDS011;32999;52.412;4.890;2022-08-19T05:47:03;47.70;;;28.75;;
47259;SDS011;32999;52.412;4.890;2022-08-19T05:52:07;42.67;;;27.40;;
47259;SDS011;32999;52.412;4.890;2022-08-19T05:57:13;50.92;;;30.70;;
47259;SDS011;32999;52.412;4.890;2022-08-19T06:02:15;47.70;;;30.75;;
47259;SDS011;32999;52.412;4.890;2022-08-19T06:07:16;48.08;;;31.90;;
47259;SDS011;32999;52.412;4.890;2022-08-19T06:12:20;54.53;;;31.40;;
47259;SDS011;32999;52.412;4.890;2022-08-19T06:17:32;54.67;;;32.15;;
47259;SDS011;32999;52.412;4.890;2022-08-19T06:22:36;57.92;;;32.72;;
47259;SDS011;32999;52.412;4.890;2022-08-19T06:27:40;64.88;;;35.08;;
47259;SDS011;32999;52.412;4.890;2022-08-19T06:32:42;62.97;;;34.50;;
47259;SDS011;32999;52.412;4.890;2022-08-19T06:37:44;69.82;;;35.67;;
47259;SDS011;32999;52.412;4.890;2022-08-19T06:42:47;67.18;;;36.00;;
47259;SDS011;32999;52.412;4.890;2022-08-19T06:47:48;63.20;;;37.45;;
47259;SDS011;32999;52.412;4.890;2022-08-19T06:52:51;72.50;;;37.03;;
47259;SDS011;32999;52.412;4.890;2022-08-19T06:57:55;61.20;;;37.40;;
47259;SDS011;32999;52.412;4.890;2022-08-19T07:02:57;64.75;;;36.97;;
47259;SDS011;32999;52.412;4.890;2022-08-19T07:07:58;73.60;;;37.70;;
47259;SDS011;32999;52.412;4.890;2022-08-19T07:13:01;61.72;;;35.88;;
47259;SDS011;32999;52.412;4.890;2022-08-19T07:18:03;59.50;;;33.07;;
47259;SDS011;32999;52.412;4.890;2022-08-19T07:23:05;55.97;;;32.15;;
47259;SDS011;32999;52.412;4.890;2022-08-19T07:28:08;66.05;;;34.90;;
47259;SDS011;32999;52.412;4.890;2022-08-19T07:33:10;53.97;;;31.63;;
47259;SDS011;32999;52.412;4.890;2022-08-19T07:38:11;59.15;;;31.02;;
47259;SDS011;32999;52.412;4.890;2022-08-19T07:43:14;47.90;;;28.70;;
47259;SDS011;32999;52.412;4.890;2022-08-19T07:48:16;42.73;;;26.40;;
47259;SDS011;32999;52.412;4.890;2022-08-19T07:53:17;44.42;;;25.52;;
47259;SDS011;32999;52.412;4.890;2022-08-19T07:58:21;42.63;;;25.50;;
47259;SDS011;32999;52.412;4.890;2022-08-19T08:03:23;45.38;;;25.70;;
47259;SDS011;32999;52.412;4.890;2022-08-19T08:08:45;37.40;;;21.10;;
47259;SDS011;32999;52.412;4.890;2022-08-19T08:14:05;31.08;;;19.25;;
47259;SDS011;32999;52.412;4.890;2022-08-19T08:19:08;26.85;;;16.98;;
47259;SDS011;32999;52.412;4.890;2022-08-19T08:24:10;23.38;;;15.30;;
47259;SDS011;32999;52.412;4.890;2022-08-19T08:29:14;26.95;;;15.23;;
47259;SDS011;32999;52.412;4.890;2022-08-19T08:34:15;27.25;;;15.23;;
47259;SDS011;32999;52.412;4.890;2022-08-19T08:39:18;30.30;;;16.50;;
47259;SDS011;32999;52.412;4.890;2022-08-19T08:44:23;16.55;;;11.02;;
47259;SDS011;32999;52.412;4.890;2022-08-19T08:49:33;22.08;;;11.05;;
47259;SDS011;32999;52.412;4.890;2022-08-19T08:54:42;19.17;;;12.80;;
47259;SDS011;32999;52.412;4.890;2022-08-19T08:59:48;13.13;;;8.00;;
47259;SDS011;32999;52.412;4.890;2022-08-19T09:04:53;12.43;;;7.03;;
47259;SDS011;32999;52.412;4.890;2022-08-19T09:09:56;13.43;;;5.77;;
47259;SDS011;32999;52.412;4.890;2022-08-19T09:15:10;13.57;;;7.47;;
47259;SDS011;32999;52.412;4.890;2022-08-19T09:20:15;17.30;;;6.65;;
47259;SDS011;32999;52.412;4.890;2022-08-19T09:25:20;11.80;;;5.80;;
47259;SDS011;32999;52.412;4.890;2022-08-19T09:30:26;10.95;;;6.57;;
47259;SDS011;32999;52.412;4.890;2022-08-19T09:35:29;15.18;;;7.75;;
47259;SDS011;32999;52.412;4.890;2022-08-19T09:40:31;10.95;;;6.45;;
47259;SDS011;32999;52.412;4.890;2022-08-19T09:45:34;10.52;;;6.65;;
47259;SDS011;32999;52.412;4.890;2022-08-19T09:50:35;14.60;;;6.60;;
47259;SDS011;32999;52.412;4.890;2022-08-19T09:55:41;12.53;;;6.63;;
47259;SDS011;32999;52.412;4.890;2022-08-19T10:00:44;12.30;;;6.60;;
47259;SDS011;32999;52.412;4.890;2022-08-19T10:05:46;10.43;;;5.82;;
47259;SDS011;32999;52.412;4.890;2022-08-19T10:10:51;11.00;;;6.05;;
47259;SDS011;32999;52.412;4.890;2022-08-19T10:15:55;11.17;;;5.40;;
47259;SDS011;32999;52.412;4.890;2022-08-19T10:21:02;11.77;;;5.80;;
47259;SDS011;32999;52.412;4.890;2022-08-19T10:26:08;13.05;;;5.82;;
47259;SDS011;32999;52.412;4.890;2022-08-19T10:31:13;11.30;;;6.32;;
47259;SDS011;32999;52.412;4.890;2022-08-19T10:36:20;15.70;;;6.03;;
47259;SDS011;32999;52.412;4.890;2022-08-19T10:41:24;11.07;;;6.47;;
47259;SDS011;32999;52.412;4.890;2022-08-19T10:46:28;10.68;;;6.70;;
47259;SDS011;32999;52.412;4.890;2022-08-19T10:51:37;13.70;;;5.97;;
47259;SDS011;32999;52.412;4.890;2022-08-19T10:57:00;10.13;;;5.30;;
47259;SDS011;32999;52.412;4.890;2022-08-19T11:07:49;7.97;;;3.97;;
47259;SDS011;32999;52.412;4.890;2022-08-19T11:12:51;11.13;;;4.65;;
47259;SDS011;32999;52.412;4.890;2022-08-19T11:18:04;8.82;;;4.28;;
47259;SDS011;32999;52.412;4.890;2022-08-19T11:23:06;11.25;;;4.13;;
47259;SDS011;32999;52.412;4.890;2022-08-19T11:28:08;10.60;;;4.80;;
47259;SDS011;32999;52.412;4.890;2022-08-19T11:33:11;8.73;;;4.07;;
47259;SDS011;32999;52.412;4.890;2022-08-19T11:38:12;13.30;;;4.50;;
47259;SDS011;32999;52.412;4.890;2022-08-19T11:43:14;11.75;;;4.43;;
47259;SDS011;32999;52.412;4.890;2022-08-19T11:48:23;9.02;;;4.18;;
47259;SDS011;32999;52.412;4.890;2022-08-19T11:53:25;4.65;;;3.38;;
47259;SDS011;32999;52.412;4.890;2022-08-19T11:58:27;7.28;;;3.55;;
47259;SDS011;32999;52.412;4.890;2022-08-19T12:03:31;8.45;;;3.70;;
47259;SDS011;32999;52.412;4.890;2022-08-19T12:08:41;12.18;;;2.97;;
47259;SDS011;32999;52.412;4.890;2022-08-19T12:13:43;9.55;;;3.42;;
47259;SDS011;32999;52.412;4.890;2022-08-19T12:18:47;3.17;;;1.70;;
47259;SDS011;32999;52.412;4.890;2022-08-19T12:23:51;5.38;;;2.47;;
47259;SDS011;32999;52.412;4.890;2022-08-19T12:28:52;2.85;;;1.52;;
47259;SDS011;32999;52.412;4.890;2022-08-19T12:33:56;4.80;;;2.00;;
47259;SDS011;32999;52.412;4.890;2022-08-19T12:38:58;4.57;;;1.40;;
47259;SDS011;32999;52.412;4.890;2022-08-19T12:44:00;2.55;;;1.40;;
47259;SDS011;32999;52.412;4.890;2022-08-19T12:49:04;1.85;;;1.17;;
47259;SDS011;32999;52.412;4.890;2022-08-19T12:54:06;4.63;;;1.65;;
47259;SDS011;32999;52.412;4.890;2022-08-19T12:59:08;1.27;;;1.08;;
47259;SDS011;32999;52.412;4.890;2022-08-19T13:09:14;2.93;;;1.40;;
47259;SDS011;32999;52.412;4.890;2022-08-19T13:14:15;4.25;;;1.45;;
47259;SDS011;32999;52.412;4.890;2022-08-19T13:19:21;3.55;;;1.60;;
47259;SDS011;32999;52.412;4.890;2022-08-19T13:24:25;3.65;;;1.90;;
47259;SDS011;32999;52.412;4.890;2022-08-19T13:29:26;2.90;;;1.50;;
47259;SDS011;32999;52.412;4.890;2022-08-19T13:34:47;3.13;;;1.30;;
47259;SDS011;32999;52.412;4.890;2022-08-19T13:44:49;3.88;;;1.15;;
47259;SDS011;32999;52.412;4.890;2022-08-19T13:49:56;4.38;;;1.60;;
47259;SDS011;32999;52.412;4.890;2022-08-19T13:54:58;3.08;;;1.45;;
47259;SDS011;32999;52.412;4.890;2022-08-19T13:59:59;3.78;;;1.45;;
47259;SDS011;32999;52.412;4.890;2022-08-19T14:05:03;3.67;;;1.30;;
47259;SDS011;32999;52.412;4.890;2022-08-19T14:10:07;1.45;;;1.13;;
47259;SDS011;32999;52.412;4.890;2022-08-19T14:15:11;3.35;;;1.30;;
47259;SDS011;32999;52.412;4.890;2022-08-19T14:20:15;3.70;;;1.43;;
47259;SDS011;32999;52.412;4.890;2022-08-19T14:25:18;2.35;;;1.50;;
47259;SDS011;32999;52.412;4.890;2022-08-19T14:30:22;2.05;;;1.60;;
47259;SDS011;32999;52.412;4.890;2022-08-19T14:35:28;3.17;;;1.45;;
47259;SDS011;32999;52.412;4.890;2022-08-19T14:40:32;2.78;;;1.58;;
47259;SDS011;32999;52.412;4.890;2022-08-19T14:45:35;4.07;;;1.10;;
47259;SDS011;32999;52.412;4.890;2022-08-19T14:50:40;3.28;;;1.60;;
47259;SDS011;32999;52.412;4.890;2022-08-19T14:55:42;3.78;;;1.77;;
47259;SDS011;32999;52.412;4.890;2022-08-19T15:00:44;5.33;;;1.87;;
47259;SDS011;32999;52.412;4.890;2022-08-19T15:05:47;2.60;;;1.55;;
47259;SDS011;32999;52.412;4.890;2022-08-19T15:10:48;7.47;;;1.75;;
47259;SDS011;32999;52.412;4.890;2022-08-19T15:15:50;3.50;;;2.00;;
47259;SDS011;32999;52.412;4.890;2022-08-19T15:20:54;5.35;;;2.00;;
47259;SDS011;32999;52.412;4.890;2022-08-19T15:25:57;3.88;;;1.85;;
47259;SDS011;32999;52.412;4.890;2022-08-19T15:30:59;5.20;;;3.13;;
47259;SDS011;32999;52.412;4.890;2022-08-19T15:36:03;2.55;;;1.60;;
47259;SDS011;32999;52.412;4.890;2022-08-19T15:41:05;2.53;;;1.30;;
47259;SDS011;32999;52.412;4.890;2022-08-19T15:46:27;2.78;;;1.52;;
47259;SDS011;32999;52.412;4.890;2022-08-19T15:51:32;1.50;;;1.17;;
47259;SDS011;32999;52.412;4.890;2022-08-19T15:56:35;2.60;;;1.30;;
47259;SDS011;32999;52.412;4.890;2022-08-19T16:02:00;2.35;;;1.38;;
47259;SDS011;32999;52.412;4.890;2022-08-19T16:07:21;2.83;;;1.40;;
47259;SDS011;32999;52.412;4.890;2022-08-19T16:12:22;3.05;;;1.45;;
47259;SDS011;32999;52.412;4.890;2022-08-19T16:17:26;4.38;;;1.00;;
47259;SDS011;32999;52.412;4.890;2022-08-19T16:22:30;3.47;;;1.50;;
47259;SDS011;32999;52.412;4.890;2022-08-19T16:27:32;1.77;;;1.20;;
47259;SDS011;32999;52.412;4.890;2022-08-19T16:32:34;2.33;;;1.38;;
47259;SDS011;32999;52.412;4.890;2022-08-19T16:37:37;2.72;;;1.33;;
47259;SDS011;32999;52.412;4.890;2022-08-19T16:42:38;3.42;;;1.67;;
47259;SDS011;32999;52.412;4.890;2022-08-19T16:47:40;3.78;;;1.23;;
47259;SDS011;32999;52.412;4.890;2022-08-19T16:52:43;1.35;;;0.82;;
47259;SDS011;32999;52.412;4.890;2022-08-19T16:57:46;5.13;;;1.30;;
47259;SDS011;32999;52.412;4.890;2022-08-19T17:02:49;2.40;;;0.90;;
47259;SDS011;32999;52.412;4.890;2022-08-19T17:07:52;3.53;;;0.90;;
47259;SDS011;32999;52.412;4.890;2022-08-19T17:12:54;2.05;;;1.08;;
47259;SDS011;32999;52.412;4.890;2022-08-19T17:17:57;1.60;;;1.10;;
47259;SDS011;32999;52.412;4.890;2022-08-19T17:23:01;1.33;;;0.85;;
47259;SDS011;32999;52.412;4.890;2022-08-19T17:28:05;2.45;;;1.05;;
47259;SDS011;32999;52.412;4.890;2022-08-19T17:33:09;0.98;;;0.57;;
47259;SDS011;32999;52.412;4.890;2022-08-19T17:38:13;1.23;;;0.60;;
47259;SDS011;32999;52.412;4.890;2022-08-19T17:43:17;2.33;;;1.65;;
47259;SDS011;32999;52.412;4.890;2022-08-19T17:48:19;2.80;;;1.00;;
47259;SDS011;32999;52.412;4.890;2022-08-19T17:53:24;1.42;;;1.10;;
47259;SDS011;32999;52.412;4.890;2022-08-19T17:58:27;2.10;;;1.17;;
47259;SDS011;32999;52.412;4.890;2022-08-19T18:03:28;5.68;;;1.52;;
47259;SDS011;32999;52.412;4.890;2022-08-19T18:08:31;2.63;;;1.20;;
47259;SDS011;32999;52.412;4.890;2022-08-19T18:13:35;3.08;;;1.00;;
47259;SDS011;32999;52.412;4.890;2022-08-19T18:18:37;2.60;;;1.20;;
47259;SDS011;32999;52.412;4.890;2022-08-19T18:23:41;2.70;;;1.33;;
47259;SDS011;32999;52.412;4.890;2022-08-19T18:28:43;2.77;;;1.43;;
47259;SDS011;32999;52.412;4.890;2022-08-19T18:33:44;4.07;;;1.58;;
47259;SDS011;32999;52.412;4.890;2022-08-19T18:38:48;3.10;;;1.38;;
47259;SDS011;32999;52.412;4.890;2022-08-19T18:44:07;4.50;;;2.65;;
47259;SDS011;32999;52.412;4.890;2022-08-19T18:49:28;5.82;;;3.97;;
47259;SDS011;32999;52.412;4.890;2022-08-19T18:54:34;2.30;;;1.73;;
47259;SDS011;32999;52.412;4.890;2022-08-19T18:59:35;2.80;;;1.80;;
47259;SDS011;32999;52.412;4.890;2022-08-19T19:04:37;6.65;;;5.80;;
47259;SDS011;32999;52.412;4.890;2022-08-19T19:09:40;3.58;;;2.53;;
47259;SDS011;32999;52.412;4.890;2022-08-19T19:19:44;7.07;;;4.00;;
47259;SDS011;32999;52.412;4.890;2022-08-19T19:24:47;7.90;;;4.03;;
47259;SDS011;32999;52.412;4.890;2022-08-19T19:34:51;6.97;;;3.35;;
47259;SDS011;32999;52.412;4.890;2022-08-19T19:39:55;6.07;;;4.32;;
47259;SDS011;32999;52.412;4.890;2022-08-19T19:44:56;9.03;;;3.43;;
47259;SDS011;32999;52.412;4.890;2022-08-19T19:55:03;6.15;;;3.60;;
47259;SDS011;32999;52.412;4.890;2022-08-19T20:00:06;5.20;;;3.60;;
47259;SDS011;32999;52.412;4.890;2022-08-19T20:10:13;5.97;;;4.18;;
47259;SDS011;32999;52.412;4.890;2022-08-19T20:15:16;9.32;;;4.25;;
47259;SDS011;32999;52.412;4.890;2022-08-19T20:20:20;7.18;;;4.28;;
47259;SDS011;32999;52.412;4.890;2022-08-19T20:25:24;6.53;;;3.63;;
47259;SDS011;32999;52.412;4.890;2022-08-19T20:30:26;9.63;;;4.20;;
47259;SDS011;32999;52.412;4.890;2022-08-19T20:35:41;9.43;;;4.75;;
47259;SDS011;32999;52.412;4.890;2022-08-19T20:40:44;5.15;;;3.78;;
47259;SDS011;32999;52.412;4.890;2022-08-19T20:45:46;7.93;;;3.42;;
47259;SDS011;32999;52.412;4.890;2022-08-19T20:50:50;7.78;;;3.90;;
47259;SDS011;32999;52.412;4.890;2022-08-19T20:55:53;6.38;;;3.03;;
47259;SDS011;32999;52.412;4.890;2022-08-19T21:05:58;6.53;;;4.10;;
47259;SDS011;32999;52.412;4.890;2022-08-19T21:11:02;6.13;;;3.85;;
47259;SDS011;32999;52.412;4.890;2022-08-19T21:16:08;7.72;;;4.28;;
47259;SDS011;32999;52.412;4.890;2022-08-19T21:21:22;10.32;;;5.25;;
47259;SDS011;32999;52.412;4.890;2022-08-19T21:26:26;10.90;;;5.30;;
47259;SDS011;32999;52.412;4.890;2022-08-19T21:31:34;13.10;;;5.13;;
47259;SDS011;32999;52.412;4.890;2022-08-19T21:36:37;7.13;;;4.88;;
47259;SDS011;32999;52.412;4.890;2022-08-19T21:41:47;13.80;;;4.55;;
47259;SDS011;32999;52.412;4.890;2022-08-19T21:47:01;10.88;;;3.42;;
47259;SDS011;32999;52.412;4.890;2022-08-19T21:52:11;11.05;;;3.83;;
47259;SDS011;32999;52.412;4.890;2022-08-19T21:57:23;8.35;;;4.25;;
47259;SDS011;32999;52.412;4.890;2022-08-19T22:02:25;9.55;;;4.35;;
47259;SDS011;32999;52.412;4.890;2022-08-19T22:07:27;10.63;;;5.15;;
47259;SDS011;32999;52.412;4.890;2022-08-19T22:12:33;11.45;;;5.10;;
47259;SDS011;32999;52.412;4.890;2022-08-19T22:17:37;10.82;;;5.00;;
47259;SDS011;32999;52.412;4.890;2022-08-19T22:22:44;12.52;;;5.47;;
47259;SDS011;32999;52.412;4.890;2022-08-19T22:27:52;14.70;;;6.35;;
47259;SDS011;32999;52.412;4.890;2022-08-19T22:32:56;10.05;;;5.57;;
47259;SDS011;32999;52.412;4.890;2022-08-19T22:38:03;11.10;;;5.63;;
47259;SDS011;32999;52.412;4.890;2022-08-19T22:43:10;11.80;;;5.95;;
47259;SDS011;32999;52.412;4.890;2022-08-19T22:48:19;10.65;;;5.60;;
47259;SDS011;32999;52.412;4.890;2022-08-19T22:53:23;13.18;;;6.38;;
47259;SDS011;32999;52.412;4.890;2022-08-19T22:58:28;16.40;;;6.05;;
47259;SDS011;32999;52.412;4.890;2022-08-19T23:03:30;14.27;;;6.15;;
47259;SDS011;32999;52.412;4.890;2022-08-19T23:08:32;13.75;;;6.03;;
47259;SDS011;32999;52.412;4.890;2022-08-19T23:13:37;11.27;;;5.65;;
47259;SDS011;32999;52.412;4.890;2022-08-19T23:18:39;17.88;;;5.75;;
47259;SDS011;32999;52.412;4.890;2022-08-19T23:23:41;12.55;;;5.60;;
47259;SDS011;32999;52.412;4.890;2022-08-19T23:28:45;16.15;;;5.25;;
47259;SDS011;32999;52.412;4.890;2022-08-19T23:34:04;16.55;;;5.20;;
47259;SDS011;32999;52.412;4.890;2022-08-19T23:39:08;11.27;;;4.80;;
47259;SDS011;32999;52.412;4.890;2022-08-19T23:44:13;12.55;;;4.45;;
47259;SDS011;32999;52.412;4.890;2022-08-19T23:54:17;17.33;;;4.50;;
47259;SDS011;32999;52.412;4.890;2022-08-19T23:59:20;8.60;;;4.20;;
